sensor_id;sensor_type;location;lat;lon;timestamp;temperature;humidity
46652;DHT22;32377;52.182;5.398;2023-05-07T00:02:24;14.80;99.90
46652;DHT22;32377;52.182;5.398;2023-05-07T00:04:49;14.80;99.90
46652;DHT22;32377;52.182;5.398;2023-05-07T00:07:15;14.70;99.90
46652;DHT22;32377;52.182;5.398;2023-05-07T00:09:41;14.70;99.90
46652;DHT22;32377;52.182;5.398;2023-05-07T00:12:07;14.70;99.90
46652;DHT22;32377;52.182;5.398;2023-05-07T00:14:32;14.60;99.90
46652;DHT22;32377;52.182;5.398;2023-05-07T00:16:58;14.60;99.90
46652;DHT22;32377;52.182;5.398;2023-05-07T00:19:24;14.60;99.90
46652;DHT22;32377;52.182;5.398;2023-05-07T00:21:49;14.60;99.90
46652;DHT22;32377;52.182;5.398;2023-05-07T00:24:15;14.60;99.90
46652;DHT22;32377;52.182;5.398;2023-05-07T00:26:41;14.60;99.90
46652;DHT22;32377;52.182;5.398;2023-05-07T00:29:09;14.60;99.90
46652;DHT22;32377;52.182;5.398;2023-05-07T00:31:35;14.50;99.90
46652;DHT22;32377;52.182;5.398;2023-05-07T00:34:00;14.50;99.90
46652;DHT22;32377;52.182;5.398;2023-05-07T00:36:26;14.50;99.90
46652;DHT22;32377;52.182;5.398;2023-05-07T00:38:51;14.50;99.90
46652;DHT22;32377;52.182;5.398;2023-05-07T00:41:17;14.50;99.90
46652;DHT22;32377;52.182;5.398;2023-05-07T00:43:43;14.50;99.90
46652;DHT22;32377;52.182;5.398;2023-05-07T00:46:08;14.40;99.90
46652;DHT22;32377;52.182;5.398;2023-05-07T00:48:35;14.40;99.90
46652;DHT22;32377;52.182;5.398;2023-05-07T00:51:01;14.40;99.90
46652;DHT22;32377;52.182;5.398;2023-05-07T00:53:26;14.40;99.90
46652;DHT22;32377;52.182;5.398;2023-05-07T00:55:52;14.30;99.90
46652;DHT22;32377;52.182;5.398;2023-05-07T00:58:18;14.30;99.90
46652;DHT22;32377;52.182;5.398;2023-05-07T01:00:45;14.30;99.90
46652;DHT22;32377;52.182;5.398;2023-05-07T01:03:10;14.30;99.90
46652;DHT22;32377;52.182;5.398;2023-05-07T01:05:36;14.30;99.90
46652;DHT22;32377;52.182;5.398;2023-05-07T01:08:02;14.30;99.90
46652;DHT22;32377;52.182;5.398;2023-05-07T01:10:29;14.30;99.90
46652;DHT22;32377;52.182;5.398;2023-05-07T01:12:57;14.30;99.90
46652;DHT22;32377;52.182;5.398;2023-05-07T01:15:23;14.30;99.90
46652;DHT22;32377;52.182;5.398;2023-05-07T01:17:49;14.20;99.90
46652;DHT22;32377;52.182;5.398;2023-05-07T01:20:15;14.20;99.90
46652;DHT22;32377;52.182;5.398;2023-05-07T01:22:41;14.20;99.90
46652;DHT22;32377;52.182;5.398;2023-05-07T01:25:08;14.20;99.90
46652;DHT22;32377;52.182;5.398;2023-05-07T01:27:34;14.20;99.90
46652;DHT22;32377;52.182;5.398;2023-05-07T01:30:02;14.20;99.90
46652;DHT22;32377;52.182;5.398;2023-05-07T01:34:59;14.20;99.90
46652;DHT22;32377;52.182;5.398;2023-05-07T01:37:26;14.30;99.90
46652;DHT22;32377;52.182;5.398;2023-05-07T01:39:52;14.30;99.90
46652;DHT22;32377;52.182;5.398;2023-05-07T01:42:19;14.40;99.90
46652;DHT22;32377;52.182;5.398;2023-05-07T01:44:45;14.40;99.90
46652;DHT22;32377;52.182;5.398;2023-05-07T01:47:11;14.40;99.90
46652;DHT22;32377;52.182;5.398;2023-05-07T01:49:37;14.40;99.90
46652;DHT22;32377;52.182;5.398;2023-05-07T01:52:03;14.40;99.90
46652;DHT22;32377;52.182;5.398;2023-05-07T01:54:29;14.40;99.90
46652;DHT22;32377;52.182;5.398;2023-05-07T01:56:57;14.40;99.90
46652;DHT22;32377;52.182;5.398;2023-05-07T01:59:23;14.40;99.90
46652;DHT22;32377;52.182;5.398;2023-05-07T02:01:49;14.40;99.90
46652;DHT22;32377;52.182;5.398;2023-05-07T02:04:14;14.40;99.90
46652;DHT22;32377;52.182;5.398;2023-05-07T02:06:40;14.40;99.90
46652;DHT22;32377;52.182;5.398;2023-05-07T02:09:05;14.40;99.90
46652;DHT22;32377;52.182;5.398;2023-05-07T02:11:31;14.40;99.90
46652;DHT22;32377;52.182;5.398;2023-05-07T02:13:57;14.40;99.90
46652;DHT22;32377;52.182;5.398;2023-05-07T02:16:22;14.30;99.90
46652;DHT22;32377;52.182;5.398;2023-05-07T02:18:49;14.40;99.90
46652;DHT22;32377;52.182;5.398;2023-05-07T02:21:14;14.30;99.90
46652;DHT22;32377;52.182;5.398;2023-05-07T02:23:40;14.30;99.90
46652;DHT22;32377;52.182;5.398;2023-05-07T02:26:06;14.30;99.90
46652;DHT22;32377;52.182;5.398;2023-05-07T02:28:31;14.30;99.90
46652;DHT22;32377;52.182;5.398;2023-05-07T02:30:57;14.30;99.90
46652;DHT22;32377;52.182;5.398;2023-05-07T02:33:26;14.30;99.90
46652;DHT22;32377;52.182;5.398;2023-05-07T02:35:51;14.30;99.90
46652;DHT22;32377;52.182;5.398;2023-05-07T02:38:17;14.30;99.90
46652;DHT22;32377;52.182;5.398;2023-05-07T02:40:43;14.20;99.90
46652;DHT22;32377;52.182;5.398;2023-05-07T02:43:09;14.20;99.90
46652;DHT22;32377;52.182;5.398;2023-05-07T02:45:34;14.20;99.90
46652;DHT22;32377;52.182;5.398;2023-05-07T02:48:01;14.10;99.90
46652;DHT22;32377;52.182;5.398;2023-05-07T02:50:27;14.10;99.90
46652;DHT22;32377;52.182;5.398;2023-05-07T02:52:52;14.10;99.90
46652;DHT22;32377;52.182;5.398;2023-05-07T02:55:18;14.10;99.90
46652;DHT22;32377;52.182;5.398;2023-05-07T02:57:43;14.10;99.90
46652;DHT22;32377;52.182;5.398;2023-05-07T03:00:18;14.10;99.90
46652;DHT22;32377;52.182;5.398;2023-05-07T03:02:44;14.10;99.90
46652;DHT22;32377;52.182;5.398;2023-05-07T03:05:10;14.20;99.90
46652;DHT22;32377;52.182;5.398;2023-05-07T03:07:37;14.20;99.90
46652;DHT22;32377;52.182;5.398;2023-05-07T03:10:03;14.20;99.90
46652;DHT22;32377;52.182;5.398;2023-05-07T03:12:29;14.20;99.90
46652;DHT22;32377;52.182;5.398;2023-05-07T03:14:55;14.20;99.90
46652;DHT22;32377;52.182;5.398;2023-05-07T03:17:21;14.20;99.90
46652;DHT22;32377;52.182;5.398;2023-05-07T03:19:46;14.20;99.90
46652;DHT22;32377;52.182;5.398;2023-05-07T03:22:12;14.30;99.90
46652;DHT22;32377;52.182;5.398;2023-05-07T03:24:38;14.30;99.90
46652;DHT22;32377;52.182;5.398;2023-05-07T03:27:03;14.20;99.90
46652;DHT22;32377;52.182;5.398;2023-05-07T03:29:29;14.30;99.90
46652;DHT22;32377;52.182;5.398;2023-05-07T03:31:55;14.20;99.90
46652;DHT22;32377;52.182;5.398;2023-05-07T03:34:20;14.20;99.90
46652;DHT22;32377;52.182;5.398;2023-05-07T03:36:50;14.20;99.90
46652;DHT22;32377;52.182;5.398;2023-05-07T03:39:16;14.20;99.90
46652;DHT22;32377;52.182;5.398;2023-05-07T03:41:42;14.20;99.90
46652;DHT22;32377;52.182;5.398;2023-05-07T03:44:08;14.20;99.90
46652;DHT22;32377;52.182;5.398;2023-05-07T03:46:33;14.20;99.90
46652;DHT22;32377;52.182;5.398;2023-05-07T03:49:00;14.20;99.90
46652;DHT22;32377;52.182;5.398;2023-05-07T03:51:25;14.20;99.90
46652;DHT22;32377;52.182;5.398;2023-05-07T03:53:52;14.20;99.90
46652;DHT22;32377;52.182;5.398;2023-05-07T03:59:24;14.20;99.90
46652;DHT22;32377;52.182;5.398;2023-05-07T04:01:50;14.20;99.90
46652;DHT22;32377;52.182;5.398;2023-05-07T04:04:16;14.20;99.90
46652;DHT22;32377;52.182;5.398;2023-05-07T04:06:41;14.20;99.90
46652;DHT22;32377;52.182;5.398;2023-05-07T04:09:07;14.20;99.90
46652;DHT22;32377;52.182;5.398;2023-05-07T04:11:33;14.20;99.90
46652;DHT22;32377;52.182;5.398;2023-05-07T04:13:58;14.20;99.90
46652;DHT22;32377;52.182;5.398;2023-05-07T04:16:24;14.20;99.90
46652;DHT22;32377;52.182;5.398;2023-05-07T04:18:50;14.20;99.90
46652;DHT22;32377;52.182;5.398;2023-05-07T04:21:20;14.20;99.90
46652;DHT22;32377;52.182;5.398;2023-05-07T04:23:49;14.30;99.90
46652;DHT22;32377;52.182;5.398;2023-05-07T04:26:15;14.30;99.90
46652;DHT22;32377;52.182;5.398;2023-05-07T04:28:41;14.30;99.90
46652;DHT22;32377;52.182;5.398;2023-05-07T04:31:07;14.30;99.90
46652;DHT22;32377;52.182;5.398;2023-05-07T04:33:33;14.30;99.90
46652;DHT22;32377;52.182;5.398;2023-05-07T04:36:01;14.30;99.90
46652;DHT22;32377;52.182;5.398;2023-05-07T04:38:31;14.30;99.90
46652;DHT22;32377;52.182;5.398;2023-05-07T04:40:57;14.30;99.90
46652;DHT22;32377;52.182;5.398;2023-05-07T04:43:23;14.30;99.90
46652;DHT22;32377;52.182;5.398;2023-05-07T04:45:50;14.30;99.90
46652;DHT22;32377;52.182;5.398;2023-05-07T04:48:16;14.30;99.90
46652;DHT22;32377;52.182;5.398;2023-05-07T04:50:46;14.30;99.90
46652;DHT22;32377;52.182;5.398;2023-05-07T04:53:12;14.30;99.90
46652;DHT22;32377;52.182;5.398;2023-05-07T04:55:38;14.30;99.90
46652;DHT22;32377;52.182;5.398;2023-05-07T04:58:03;14.40;99.90
46652;DHT22;32377;52.182;5.398;2023-05-07T05:00:30;14.40;99.90
46652;DHT22;32377;52.182;5.398;2023-05-07T05:02:56;14.30;99.90
46652;DHT22;32377;52.182;5.398;2023-05-07T05:05:22;14.30;99.90
46652;DHT22;32377;52.182;5.398;2023-05-07T05:07:47;14.40;99.90
46652;DHT22;32377;52.182;5.398;2023-05-07T05:10:13;14.30;99.90
46652;DHT22;32377;52.182;5.398;2023-05-07T05:12:38;14.30;99.90
46652;DHT22;32377;52.182;5.398;2023-05-07T05:15:05;14.30;99.90
46652;DHT22;32377;52.182;5.398;2023-05-07T05:17:30;14.30;99.90
46652;DHT22;32377;52.182;5.398;2023-05-07T05:19:56;14.40;99.90
46652;DHT22;32377;52.182;5.398;2023-05-07T05:22:21;14.40;99.90
46652;DHT22;32377;52.182;5.398;2023-05-07T05:24:47;14.40;99.90
46652;DHT22;32377;52.182;5.398;2023-05-07T05:27:13;14.40;99.90
46652;DHT22;32377;52.182;5.398;2023-05-07T05:29:38;14.40;99.90
46652;DHT22;32377;52.182;5.398;2023-05-07T05:32:04;14.40;99.90
46652;DHT22;32377;52.182;5.398;2023-05-07T05:34:29;14.40;99.90
46652;DHT22;32377;52.182;5.398;2023-05-07T05:36:55;14.50;99.90
46652;DHT22;32377;52.182;5.398;2023-05-07T05:39:21;14.50;99.90
46652;DHT22;32377;52.182;5.398;2023-05-07T05:41:48;14.50;99.90
46652;DHT22;32377;52.182;5.398;2023-05-07T05:44:13;14.60;99.90
46652;DHT22;32377;52.182;5.398;2023-05-07T05:46:39;14.60;99.90
46652;DHT22;32377;52.182;5.398;2023-05-07T05:49:05;14.60;99.90
46652;DHT22;32377;52.182;5.398;2023-05-07T05:51:30;14.70;99.90
46652;DHT22;32377;52.182;5.398;2023-05-07T05:53:56;14.80;99.90
46652;DHT22;32377;52.182;5.398;2023-05-07T05:56:22;14.80;99.90
46652;DHT22;32377;52.182;5.398;2023-05-07T05:58:47;14.90;99.90
46652;DHT22;32377;52.182;5.398;2023-05-07T06:01:13;14.90;99.90
46652;DHT22;32377;52.182;5.398;2023-05-07T06:03:39;15.00;99.90
46652;DHT22;32377;52.182;5.398;2023-05-07T06:06:04;15.00;99.90
46652;DHT22;32377;52.182;5.398;2023-05-07T06:08:30;15.00;99.90
46652;DHT22;32377;52.182;5.398;2023-05-07T06:10:56;15.10;99.90
46652;DHT22;32377;52.182;5.398;2023-05-07T06:13:22;15.00;99.90
46652;DHT22;32377;52.182;5.398;2023-05-07T06:15:48;15.10;99.90
46652;DHT22;32377;52.182;5.398;2023-05-07T06:18:14;15.10;99.90
46652;DHT22;32377;52.182;5.398;2023-05-07T06:20:40;15.10;99.90
46652;DHT22;32377;52.182;5.398;2023-05-07T06:23:05;15.00;99.90
46652;DHT22;32377;52.182;5.398;2023-05-07T06:25:31;15.00;99.90
46652;DHT22;32377;52.182;5.398;2023-05-07T06:27:56;14.90;99.90
46652;DHT22;32377;52.182;5.398;2023-05-07T06:30:22;14.90;99.90
46652;DHT22;32377;52.182;5.398;2023-05-07T06:32:48;15.00;99.90
46652;DHT22;32377;52.182;5.398;2023-05-07T06:35:13;15.00;99.90
46652;DHT22;32377;52.182;5.398;2023-05-07T06:37:39;15.00;99.90
46652;DHT22;32377;52.182;5.398;2023-05-07T06:40:08;15.00;99.90
46652;DHT22;32377;52.182;5.398;2023-05-07T06:42:35;15.00;99.90
46652;DHT22;32377;52.182;5.398;2023-05-07T06:45:05;15.10;99.90
46652;DHT22;32377;52.182;5.398;2023-05-07T06:47:30;15.10;99.90
46652;DHT22;32377;52.182;5.398;2023-05-07T06:49:56;15.10;99.90
46652;DHT22;32377;52.182;5.398;2023-05-07T06:52:22;15.10;99.90
46652;DHT22;32377;52.182;5.398;2023-05-07T06:54:47;15.10;99.90
46652;DHT22;32377;52.182;5.398;2023-05-07T06:57:13;15.10;99.90
46652;DHT22;32377;52.182;5.398;2023-05-07T06:59:38;15.10;99.90
46652;DHT22;32377;52.182;5.398;2023-05-07T07:02:04;15.20;99.90
46652;DHT22;32377;52.182;5.398;2023-05-07T07:04:30;15.30;99.90
46652;DHT22;32377;52.182;5.398;2023-05-07T07:06:56;15.40;99.90
46652;DHT22;32377;52.182;5.398;2023-05-07T07:09:22;15.40;99.90
46652;DHT22;32377;52.182;5.398;2023-05-07T07:11:47;15.50;99.90
46652;DHT22;32377;52.182;5.398;2023-05-07T07:14:13;15.40;99.90
46652;DHT22;32377;52.182;5.398;2023-05-07T07:16:39;15.50;99.90
46652;DHT22;32377;52.182;5.398;2023-05-07T07:19:05;15.50;99.90
46652;DHT22;32377;52.182;5.398;2023-05-07T07:21:30;15.50;99.90
46652;DHT22;32377;52.182;5.398;2023-05-07T07:23:57;15.70;99.90
46652;DHT22;32377;52.182;5.398;2023-05-07T07:26:22;15.70;99.90
46652;DHT22;32377;52.182;5.398;2023-05-07T07:28:48;15.90;99.90
46652;DHT22;32377;52.182;5.398;2023-05-07T07:31:14;15.90;99.90
46652;DHT22;32377;52.182;5.398;2023-05-07T07:33:40;16.10;99.90
46652;DHT22;32377;52.182;5.398;2023-05-07T07:36:06;16.20;99.90
46652;DHT22;32377;52.182;5.398;2023-05-07T07:38:32;16.20;99.90
46652;DHT22;32377;52.182;5.398;2023-05-07T07:40:58;16.30;99.90
46652;DHT22;32377;52.182;5.398;2023-05-07T07:43:24;16.30;99.90
46652;DHT22;32377;52.182;5.398;2023-05-07T07:45:49;16.40;99.90
46652;DHT22;32377;52.182;5.398;2023-05-07T07:48:15;16.60;99.90
46652;DHT22;32377;52.182;5.398;2023-05-07T07:50:40;16.80;99.90
46652;DHT22;32377;52.182;5.398;2023-05-07T07:53:06;16.90;99.90
46652;DHT22;32377;52.182;5.398;2023-05-07T07:55:32;17.00;99.90
46652;DHT22;32377;52.182;5.398;2023-05-07T07:57:57;17.10;99.90
46652;DHT22;32377;52.182;5.398;2023-05-07T08:00:23;16.90;99.90
46652;DHT22;32377;52.182;5.398;2023-05-07T08:02:49;17.10;99.90
46652;DHT22;32377;52.182;5.398;2023-05-07T08:05:14;17.10;99.90
46652;DHT22;32377;52.182;5.398;2023-05-07T08:07:41;17.20;99.90
46652;DHT22;32377;52.182;5.398;2023-05-07T08:10:06;17.40;99.90
46652;DHT22;32377;52.182;5.398;2023-05-07T08:12:32;17.50;99.90
46652;DHT22;32377;52.182;5.398;2023-05-07T08:14:58;17.30;99.90
46652;DHT22;32377;52.182;5.398;2023-05-07T08:17:24;17.40;99.90
46652;DHT22;32377;52.182;5.398;2023-05-07T08:19:49;17.40;99.90
46652;DHT22;32377;52.182;5.398;2023-05-07T08:22:15;17.30;99.90
46652;DHT22;32377;52.182;5.398;2023-05-07T08:24:43;17.30;99.90
46652;DHT22;32377;52.182;5.398;2023-05-07T08:27:08;17.30;99.90
46652;DHT22;32377;52.182;5.398;2023-05-07T08:29:34;17.30;99.90
46652;DHT22;32377;52.182;5.398;2023-05-07T08:31:59;17.30;99.90
46652;DHT22;32377;52.182;5.398;2023-05-07T08:34:25;17.30;99.90
46652;DHT22;32377;52.182;5.398;2023-05-07T08:36:53;17.30;99.90
46652;DHT22;32377;52.182;5.398;2023-05-07T08:39:19;17.30;99.90
46652;DHT22;32377;52.182;5.398;2023-05-07T08:41:45;17.20;99.90
46652;DHT22;32377;52.182;5.398;2023-05-07T08:44:12;17.20;99.90
46652;DHT22;32377;52.182;5.398;2023-05-07T08:46:39;17.20;99.90
46652;DHT22;32377;52.182;5.398;2023-05-07T08:49:07;17.20;99.90
46652;DHT22;32377;52.182;5.398;2023-05-07T08:51:33;17.10;99.90
46652;DHT22;32377;52.182;5.398;2023-05-07T08:53:59;17.00;99.90
46652;DHT22;32377;52.182;5.398;2023-05-07T08:56:26;17.00;99.90
46652;DHT22;32377;52.182;5.398;2023-05-07T08:58:52;17.00;99.90
46652;DHT22;32377;52.182;5.398;2023-05-07T09:01:21;17.00;99.90
46652;DHT22;32377;52.182;5.398;2023-05-07T09:03:47;17.10;99.90
46652;DHT22;32377;52.182;5.398;2023-05-07T09:06:15;17.10;99.90
46652;DHT22;32377;52.182;5.398;2023-05-07T09:08:43;17.20;99.90
46652;DHT22;32377;52.182;5.398;2023-05-07T09:11:09;17.10;99.90
46652;DHT22;32377;52.182;5.398;2023-05-07T09:13:35;17.30;99.90
46652;DHT22;32377;52.182;5.398;2023-05-07T09:16:12;17.30;99.90
46652;DHT22;32377;52.182;5.398;2023-05-07T09:18:42;17.40;99.90
46652;DHT22;32377;52.182;5.398;2023-05-07T09:21:14;17.40;99.90
46652;DHT22;32377;52.182;5.398;2023-05-07T09:23:40;17.40;99.90
46652;DHT22;32377;52.182;5.398;2023-05-07T09:26:06;17.50;99.90
46652;DHT22;32377;52.182;5.398;2023-05-07T09:28:41;17.50;99.90
46652;DHT22;32377;52.182;5.398;2023-05-07T09:31:08;17.50;99.90
46652;DHT22;32377;52.182;5.398;2023-05-07T09:33:33;17.50;99.90
46652;DHT22;32377;52.182;5.398;2023-05-07T09:36:07;17.50;99.90
46652;DHT22;32377;52.182;5.398;2023-05-07T09:38:33;17.60;99.90
46652;DHT22;32377;52.182;5.398;2023-05-07T09:41:04;17.70;99.90
46652;DHT22;32377;52.182;5.398;2023-05-07T09:43:34;17.70;99.90
46652;DHT22;32377;52.182;5.398;2023-05-07T09:46:07;17.70;99.90
46652;DHT22;32377;52.182;5.398;2023-05-07T09:48:38;17.70;99.90
46652;DHT22;32377;52.182;5.398;2023-05-07T09:51:21;17.70;99.90
46652;DHT22;32377;52.182;5.398;2023-05-07T09:53:48;17.70;99.90
46652;DHT22;32377;52.182;5.398;2023-05-07T09:59:22;17.80;99.90
46652;DHT22;32377;52.182;5.398;2023-05-07T10:01:49;17.80;99.90
46652;DHT22;32377;52.182;5.398;2023-05-07T10:04:16;17.80;99.90
46652;DHT22;32377;52.182;5.398;2023-05-07T10:06:43;17.90;99.90
46652;DHT22;32377;52.182;5.398;2023-05-07T10:09:10;18.10;99.90
46652;DHT22;32377;52.182;5.398;2023-05-07T10:11:37;18.20;99.90
46652;DHT22;32377;52.182;5.398;2023-05-07T10:14:03;18.30;99.90
46652;DHT22;32377;52.182;5.398;2023-05-07T10:16:32;18.30;99.90
46652;DHT22;32377;52.182;5.398;2023-05-07T10:19:03;18.40;99.90
46652;DHT22;32377;52.182;5.398;2023-05-07T10:21:29;18.60;99.90
46652;DHT22;32377;52.182;5.398;2023-05-07T10:24:04;18.60;99.90
46652;DHT22;32377;52.182;5.398;2023-05-07T10:26:36;18.70;99.90
46652;DHT22;32377;52.182;5.398;2023-05-07T10:29:07;18.80;99.90
46652;DHT22;32377;52.182;5.398;2023-05-07T10:32:05;19.00;99.90
46652;DHT22;32377;52.182;5.398;2023-05-07T10:34:37;19.00;99.90
46652;DHT22;32377;52.182;5.398;2023-05-07T10:37:04;18.90;99.90
46652;DHT22;32377;52.182;5.398;2023-05-07T10:39:30;18.90;99.90
46652;DHT22;32377;52.182;5.398;2023-05-07T10:41:56;18.90;99.90
46652;DHT22;32377;52.182;5.398;2023-05-07T10:44:26;19.00;99.90
46652;DHT22;32377;52.182;5.398;2023-05-07T10:49:30;19.10;99.90
46652;DHT22;32377;52.182;5.398;2023-05-07T10:52:19;19.10;99.90
46652;DHT22;32377;52.182;5.398;2023-05-07T10:54:45;19.30;99.90
46652;DHT22;32377;52.182;5.398;2023-05-07T10:59:56;19.70;99.90
46652;DHT22;32377;52.182;5.398;2023-05-07T11:02:21;19.80;99.90
46652;DHT22;32377;52.182;5.398;2023-05-07T11:05:19;19.70;99.90
46652;DHT22;32377;52.182;5.398;2023-05-07T11:07:57;19.60;99.90
46652;DHT22;32377;52.182;5.398;2023-05-07T11:10:23;19.40;99.90
46652;DHT22;32377;52.182;5.398;2023-05-07T11:13:08;19.50;99.90
46652;DHT22;32377;52.182;5.398;2023-05-07T11:15:36;19.40;99.90
46652;DHT22;32377;52.182;5.398;2023-05-07T11:18:03;19.40;99.90
46652;DHT22;32377;52.182;5.398;2023-05-07T11:20:47;19.50;99.90
46652;DHT22;32377;52.182;5.398;2023-05-07T11:26:08;19.50;99.90
46652;DHT22;32377;52.182;5.398;2023-05-07T11:28:39;19.50;99.90
46652;DHT22;32377;52.182;5.398;2023-05-07T11:31:05;19.50;99.90
46652;DHT22;32377;52.182;5.398;2023-05-07T11:33:31;19.50;99.90
46652;DHT22;32377;52.182;5.398;2023-05-07T11:35:57;19.70;99.90
46652;DHT22;32377;52.182;5.398;2023-05-07T11:38:23;19.80;99.90
46652;DHT22;32377;52.182;5.398;2023-05-07T11:40:54;19.80;99.90
46652;DHT22;32377;52.182;5.398;2023-05-07T11:43:20;19.80;99.90
46652;DHT22;32377;52.182;5.398;2023-05-07T11:45:46;19.90;99.90
46652;DHT22;32377;52.182;5.398;2023-05-07T11:48:13;19.90;99.90
46652;DHT22;32377;52.182;5.398;2023-05-07T11:50:51;19.80;99.90
46652;DHT22;32377;52.182;5.398;2023-05-07T11:53:25;20.00;99.90
46652;DHT22;32377;52.182;5.398;2023-05-07T11:55:55;20.00;99.90
46652;DHT22;32377;52.182;5.398;2023-05-07T11:58:23;20.00;99.90
46652;DHT22;32377;52.182;5.398;2023-05-07T12:00:50;20.00;99.90
46652;DHT22;32377;52.182;5.398;2023-05-07T12:03:16;20.20;99.90
46652;DHT22;32377;52.182;5.398;2023-05-07T12:05:43;20.50;99.90
46652;DHT22;32377;52.182;5.398;2023-05-07T12:08:16;20.70;99.90
46652;DHT22;32377;52.182;5.398;2023-05-07T12:10:46;20.70;99.90
46652;DHT22;32377;52.182;5.398;2023-05-07T12:13:17;21.00;99.90
46652;DHT22;32377;52.182;5.398;2023-05-07T12:15:43;21.00;99.90
46652;DHT22;32377;52.182;5.398;2023-05-07T12:18:10;21.10;99.90
46652;DHT22;32377;52.182;5.398;2023-05-07T12:20:36;20.90;99.90
46652;DHT22;32377;52.182;5.398;2023-05-07T12:23:02;20.90;99.90
46652;DHT22;32377;52.182;5.398;2023-05-07T12:25:39;20.90;99.90
46652;DHT22;32377;52.182;5.398;2023-05-07T12:28:08;20.90;99.90
46652;DHT22;32377;52.182;5.398;2023-05-07T12:30:39;20.90;99.90
46652;DHT22;32377;52.182;5.398;2023-05-07T12:33:05;21.10;99.90
46652;DHT22;32377;52.182;5.398;2023-05-07T12:35:32;21.00;99.90
46652;DHT22;32377;52.182;5.398;2023-05-07T12:37:58;20.90;99.90
46652;DHT22;32377;52.182;5.398;2023-05-07T12:40:35;21.00;99.90
46652;DHT22;32377;52.182;5.398;2023-05-07T12:43:01;20.90;99.90
46652;DHT22;32377;52.182;5.398;2023-05-07T12:45:27;21.00;99.90
46652;DHT22;32377;52.182;5.398;2023-05-07T12:47:53;21.00;99.90
46652;DHT22;32377;52.182;5.398;2023-05-07T12:50:18;20.90;99.90
46652;DHT22;32377;52.182;5.398;2023-05-07T12:52:47;21.00;99.90
46652;DHT22;32377;52.182;5.398;2023-05-07T12:55:16;21.00;99.90
46652;DHT22;32377;52.182;5.398;2023-05-07T12:57:49;21.10;99.90
46652;DHT22;32377;52.182;5.398;2023-05-07T13:00:38;21.20;99.90
46652;DHT22;32377;52.182;5.398;2023-05-07T13:03:04;21.10;99.90
46652;DHT22;32377;52.182;5.398;2023-05-07T13:05:31;21.10;99.90
46652;DHT22;32377;52.182;5.398;2023-05-07T13:07:57;21.10;99.90
46652;DHT22;32377;52.182;5.398;2023-05-07T13:10:23;21.20;99.90
46652;DHT22;32377;52.182;5.398;2023-05-07T13:12:49;21.40;99.90
46652;DHT22;32377;52.182;5.398;2023-05-07T13:15:15;21.50;99.90
46652;DHT22;32377;52.182;5.398;2023-05-07T13:17:41;22.00;99.90
46652;DHT22;32377;52.182;5.398;2023-05-07T13:20:08;21.90;99.90
46652;DHT22;32377;52.182;5.398;2023-05-07T13:22:34;21.90;99.90
46652;DHT22;32377;52.182;5.398;2023-05-07T13:25:00;22.00;99.90
46652;DHT22;32377;52.182;5.398;2023-05-07T13:27:28;22.00;99.90
46652;DHT22;32377;52.182;5.398;2023-05-07T13:29:56;22.00;99.90
46652;DHT22;32377;52.182;5.398;2023-05-07T13:32:22;22.10;99.90
46652;DHT22;32377;52.182;5.398;2023-05-07T13:34:47;21.90;99.90
46652;DHT22;32377;52.182;5.398;2023-05-07T13:37:13;22.10;99.90
46652;DHT22;32377;52.182;5.398;2023-05-07T13:39:38;22.30;99.90
46652;DHT22;32377;52.182;5.398;2023-05-07T13:42:04;22.20;99.90
46652;DHT22;32377;52.182;5.398;2023-05-07T13:44:30;22.30;99.90
46652;DHT22;32377;52.182;5.398;2023-05-07T13:46:55;22.40;99.90
46652;DHT22;32377;52.182;5.398;2023-05-07T13:49:21;22.30;99.90
46652;DHT22;32377;52.182;5.398;2023-05-07T13:51:46;22.00;99.90
46652;DHT22;32377;52.182;5.398;2023-05-07T13:54:12;21.90;99.90
46652;DHT22;32377;52.182;5.398;2023-05-07T13:56:37;21.90;99.90
46652;DHT22;32377;52.182;5.398;2023-05-07T13:59:03;21.80;99.90
46652;DHT22;32377;52.182;5.398;2023-05-07T14:01:29;21.70;99.90
46652;DHT22;32377;52.182;5.398;2023-05-07T14:03:56;21.80;99.90
46652;DHT22;32377;52.182;5.398;2023-05-07T14:06:22;21.80;99.90
46652;DHT22;32377;52.182;5.398;2023-05-07T14:08:48;21.70;99.90
46652;DHT22;32377;52.182;5.398;2023-05-07T14:11:13;21.60;99.90
46652;DHT22;32377;52.182;5.398;2023-05-07T14:13:39;21.40;99.90
46652;DHT22;32377;52.182;5.398;2023-05-07T14:16:05;21.30;99.90
46652;DHT22;32377;52.182;5.398;2023-05-07T14:18:30;21.40;99.90
46652;DHT22;32377;52.182;5.398;2023-05-07T14:20:56;21.30;99.90
46652;DHT22;32377;52.182;5.398;2023-05-07T14:23:21;21.20;99.90
46652;DHT22;32377;52.182;5.398;2023-05-07T14:25:52;21.30;99.90
46652;DHT22;32377;52.182;5.398;2023-05-07T14:28:18;21.30;99.90
46652;DHT22;32377;52.182;5.398;2023-05-07T14:30:43;21.20;99.90
46652;DHT22;32377;52.182;5.398;2023-05-07T14:33:09;21.10;99.90
46652;DHT22;32377;52.182;5.398;2023-05-07T14:35:35;21.10;99.90
46652;DHT22;32377;52.182;5.398;2023-05-07T14:38:00;21.10;99.90
46652;DHT22;32377;52.182;5.398;2023-05-07T14:40:26;21.10;99.90
46652;DHT22;32377;52.182;5.398;2023-05-07T14:42:51;21.00;99.90
46652;DHT22;32377;52.182;5.398;2023-05-07T14:45:17;21.00;99.90
46652;DHT22;32377;52.182;5.398;2023-05-07T14:47:42;21.00;99.90
46652;DHT22;32377;52.182;5.398;2023-05-07T14:50:08;20.90;99.90
46652;DHT22;32377;52.182;5.398;2023-05-07T14:52:34;20.90;99.90
46652;DHT22;32377;52.182;5.398;2023-05-07T14:55:00;20.90;99.90
46652;DHT22;32377;52.182;5.398;2023-05-07T14:57:25;20.80;99.90
46652;DHT22;32377;52.182;5.398;2023-05-07T14:59:51;20.70;99.90
46652;DHT22;32377;52.182;5.398;2023-05-07T15:02:17;20.60;99.90
46652;DHT22;32377;52.182;5.398;2023-05-07T15:04:43;20.60;99.90
46652;DHT22;32377;52.182;5.398;2023-05-07T15:07:12;20.40;99.90
46652;DHT22;32377;52.182;5.398;2023-05-07T15:09:43;20.30;99.90
46652;DHT22;32377;52.182;5.398;2023-05-07T15:12:09;20.30;99.90
46652;DHT22;32377;52.182;5.398;2023-05-07T15:14:36;20.30;99.90
46652;DHT22;32377;52.182;5.398;2023-05-07T15:17:02;20.20;99.90
46652;DHT22;32377;52.182;5.398;2023-05-07T15:19:27;20.20;99.90
46652;DHT22;32377;52.182;5.398;2023-05-07T15:21:58;20.10;99.90
46652;DHT22;32377;52.182;5.398;2023-05-07T15:24:30;20.10;99.90
46652;DHT22;32377;52.182;5.398;2023-05-07T15:26:56;20.00;99.90
46652;DHT22;32377;52.182;5.398;2023-05-07T15:29:22;19.90;99.90
46652;DHT22;32377;52.182;5.398;2023-05-07T15:31:47;19.90;99.90
46652;DHT22;32377;52.182;5.398;2023-05-07T15:34:13;19.80;99.90
46652;DHT22;32377;52.182;5.398;2023-05-07T15:36:40;19.50;99.90
46652;DHT22;32377;52.182;5.398;2023-05-07T15:39:06;18.90;99.90
46652;DHT22;32377;52.182;5.398;2023-05-07T15:41:32;18.50;99.90
46652;DHT22;32377;52.182;5.398;2023-05-07T15:43:57;18.40;99.90
46652;DHT22;32377;52.182;5.398;2023-05-07T15:46:24;18.30;99.90